Adelphi, Ohio
Current Conditions -  °F | °C
As of 11:14 AM on Wednesday 28 Jan 2015 (Local Time) from KRZT Reporting Station
Clear Clear  
Wind Chill: 19°   Ceiling: Unl
Heat Index: 19°   Visibility: 7mi
Dew Point: 14°   Wind: 0mph
Humidity: 80%   Direction: NA
Pressure: 30.4"   Gusts: NA
Location:  39.47°N, 82.75°W
Report Text: KRZT 281614Z AUTO 00000KT 7SM CLR M07/M10 A3040 RMK AO2
Loading
Personal Weather Stations






























Interactive Weather Map New forecast layout! Learn more

10-Day Weather Forecast

Advertisements
Track Severe Weather on mobile